Latest Weather Observations for Mortlake

IDV60801

Issued at 12:31 pm EDT Saturday 7 March 2015 (issued every 30 minutes, with the page automatically refreshed every 10 minutes)

About weather observations | Map of weather stations | Latest weather observations for VIC | Other Formats
Station Details ID: 090176 Name: MORTLAKE RACECOURSE Lat: -38.07 Lon: 142.77 Height: 130.0 m
Data from the previous 72 hours. | See also: Recent months at Mortlake
Date/Time
EDT
Temp
°C
App
Temp
°C
Dew
Point
Rel
Hum
%
Delta-T
°C
Wind Press
QNH
hPa
Press
MSL
hPa
Rain
since 9 am
mm
Dir
 
Spd
km/h
Gust
km/h
Spd
kts
Gust
kts
07/12:30pm 19.5 18.2 15.8 79 2.2 W 17 28 9 15 1012.0 1011.8 0.2
07/12:00pm 18.0 16.7 15.8 87 1.3 W 17 24 9 13 1012.6 1012.4 0.2
07/11:30am 17.0 14.8 16.0 94 0.6 WNW 22 32 12 17 1012.7 1012.5 0.2
07/11:00am 15.9 13.7 14.9 94 0.6 WNW 20 26 11 14 1012.7 1012.5 0.2
07/10:30am 16.0 13.2 15.4 96 0.4 WNW 24 32 13 17 1012.4 1012.2 0.2
07/10:00am 15.2 13.2 15.0 99 0.1 WNW 19 26 10 14 1012.6 1012.4 0.2
07/09:30am 14.6 12.8 14.4 99 0.1 WNW 17 22 9 12 1012.6 1012.4 0.2
07/09:00am 14.6 12.8 14.4 99 0.1 WNW 17 24 9 13 1012.3 1012.1 3.0
07/08:30am 14.1 12.1 13.9 99 0.1 WNW 17 24 9 13 1012.2 1012.0 3.0
07/08:00am 13.7 12.0 13.5 99 0.1 WNW 15 20 8 11 1012.0 1011.8 3.0
07/07:30am 13.7 12.3 13.5 99 0.1 WNW 13 19 7 10 1011.7 1011.5 3.0
07/07:00am 13.6 12.6 13.4 99 0.1 WNW 11 17 6 9 1011.3 1011.1 3.0
07/06:30am 13.7 12.0 13.5 99 0.1 WNW 15 19 8 10 1011.3 1011.1 3.0
07/06:00am 13.7 12.0 13.5 99 0.1 WNW 15 22 8 12 1011.1 1010.9 3.0
07/05:30am 13.6 12.2 13.4 99 0.1 WNW 13 19 7 10 1011.3 1011.1 3.0
07/05:00am 13.6 12.2 13.4 99 0.1 WNW 13 17 7 9 1011.3 1011.1 3.0
07/04:30am 13.7 12.3 13.5 99 0.1 WNW 13 19 7 10 1011.5 1011.3 3.0
07/04:00am 13.6 11.8 13.4 99 0.1 WNW 15 19 8 10 1011.6 1011.4 3.0
07/03:30am 13.7 12.3 13.5 99 0.1 WNW 13 19 7 10 1011.8 1011.6 3.0
07/03:00am 13.8 12.1 13.6 99 0.1 WNW 15 20 8 11 1012.0 1011.8 3.0
07/02:30am 13.8 11.7 13.6 99 0.1 WNW 17 26 9 14 1012.4 1012.2 3.0
07/02:00am 13.9 12.2 13.7 99 0.1 WNW 15 20 8 11 1012.6 1012.4 3.0
07/01:30am 14.1 12.5 13.9 99 0.1 WNW 15 19 8 10 1012.7 1012.5 3.0
07/01:00am 14.2 13.7 13.7 97 0.3 WNW 9 15 5 8 1012.9 1012.7 3.0
07/12:30am 14.2 13.3 13.6 96 0.3 WNW 11 17 6 9 1013.0 1012.8 3.0
07/12:00am 14.4 13.5 13.6 95 0.4 WNW 11 15 6 8 1013.1 1012.9 3.0
 
Date/Time
EDT
Temp
°C
App
Temp
°C
Dew
Point
Rel
Hum
%
Delta-T
°C
Wind Press
QNH
hPa
Press
MSL
hPa
Rain
since 9 am
mm
Dir
 
Spd
km/h
Gust
km/h
Spd
kts
Gust
kts
06/11:30pm 14.6 14.4 13.6 94 0.6 W 7 13 4 7 1013.0 1012.8 3.0
06/11:00pm 14.5 14.4 13.9 96 0.3 W 7 9 4 5 1013.3 1013.1 3.0
06/10:30pm 14.4 14.2 13.6 95 0.4 W 7 9 4 5 1013.5 1013.3 3.0
06/10:00pm 14.7 14.2 13.7 94 0.6 WSW 9 15 5 8 1013.5 1013.3 3.0
06/09:30pm 14.9 14.0 13.8 93 0.6 WSW 11 19 6 10 1013.4 1013.2 3.0
06/09:00pm 14.8 14.1 14.3 97 0.3 WSW 11 17 6 9 1013.4 1013.2 3.0
06/08:30pm 14.7 14.0 14.2 97 0.3 WSW 11 17 6 9 1013.3 1013.1 3.0
06/08:00pm 15.1 14.1 14.5 96 0.3 SW 13 19 7 10 1012.9 1012.7 3.0
06/07:30pm 15.7 14.7 14.6 93 0.6 SW 13 17 7 9 1012.9 1012.7 3.0
06/07:00pm 16.3 15.0 14.7 90 0.9 WSW 15 24 8 13 1012.8 1012.6 3.0
06/06:30pm 15.9 14.0 15.1 95 0.5 SW 19 30 10 16 1012.7 1012.5 3.0
06/06:00pm 16.4 14.5 15.1 92 0.8 SW 19 28 10 15 1012.5 1012.3 3.0
06/05:30pm 16.2 14.2 15.4 95 0.5 SW 20 30 11 16 1012.5 1012.3 3.0
06/05:00pm 16.6 14.5 16.3 98 0.2 SW 22 37 12 20 1012.5 1012.3 3.0
06/04:30pm 17.1 13.1 14.2 83 1.7 SW 28 39 15 21 1012.4 1012.2 2.8
06/04:00pm 17.2 14.3 16.1 93 0.7 SW 26 33 14 18 1012.6 1012.4 2.8
06/03:30pm 17.3 13.4 15.5 89 1.1 SW 30 37 16 20 1012.6 1012.4 2.8
06/03:00pm 15.8 11.2 15.2 96 0.3 SW 33 44 18 24 1012.8 1012.6 2.8
06/02:30pm 16.2 11.7 15.4 95 0.5 SW 33 48 18 26 1013.0 1012.8 2.8
06/02:00pm 16.6 13.0 16.3 98 0.2 SW 30 43 16 23 1013.1 1012.9 2.8
06/01:30pm 16.7 13.8 16.1 96 0.4 SW 26 41 14 22 1013.1 1012.9 2.0
06/01:00pm 16.8 13.9 16.2 96 0.4 SW 26 39 14 21 1013.2 1013.0 2.0
06/12:30pm 15.8 13.1 15.5 98 0.2 SW 24 39 13 21 1013.3 1013.1 2.0
06/12:00pm 15.3 12.4 15.0 98 0.2 SW 24 41 13 22 1013.4 1013.2 2.0
06/11:30am 15.2 12.6 15.0 99 0.1 WSW 22 37 12 20 1013.4 1013.2 1.6
06/11:00am 15.1 12.5 14.9 99 0.1 WSW 22 35 12 19 1013.3 1013.1 1.6
06/10:30am 14.4 12.1 14.2 99 0.1 WSW 19 32 10 17 1013.1 1012.9 1.4
06/10:00am 13.9 11.8 13.7 99 0.1 W 17 28 9 15 1013.0 1012.8 1.4
06/09:30am 13.5 11.3 13.3 99 0.1 W 17 24 9 13 1012.9 1012.7 1.2
06/09:00am 13.1 10.4 12.9 99 0.1 W 19 26 10 14 1012.8 1012.6 1.0
06/08:30am 12.9 9.9 12.7 99 0.1 W 20 32 11 17 1012.5 1012.3 0.8
06/08:00am 12.9 10.1 12.7 99 0.1 W 19 30 10 16 1012.4 1012.2 0.4
06/07:30am 12.7 9.9 12.5 99 0.1 W 19 30 10 16 1012.3 1012.1 0.2
06/07:00am 12.7 9.9 12.5 99 0.1 W 19 28 10 15 1012.0 1011.8 0.0
06/06:30am 12.7 9.7 12.1 96 0.3 W 19 28 10 15 1012.1 1011.9 0.0
06/06:00am 13.1 9.8 11.5 90 0.9 W 20 39 11 21 1012.2 1012.0 0.0
06/05:30am 13.6 10.2 10.4 81 1.7 W 19 35 10 19 1012.2 1012.0 0.0
06/05:00am 13.1 10.1 9.4 78 1.9 WNW 15 22 8 12 1012.3 1012.1 0.0
06/04:30am 12.9 9.5 9.2 78 1.9 WNW 17 24 9 13 1012.6 1012.4 0.0
06/04:00am 12.9 9.1 9.0 77 2.0 WNW 19 30 10 16 1013.1 1012.9 0.0
06/03:30am 12.8 9.3 8.9 77 2.0 WNW 17 24 9 13 1013.2 1013.0 0.0
06/03:00am 12.6 8.7 8.7 77 2.0 WNW 19 28 10 15 1013.7 1013.5 0.0
06/02:30am 12.8 8.9 8.7 76 2.1 WNW 19 26 10 14 1014.2 1013.9 0.0
06/02:00am 12.7 8.8 8.6 76 2.1 WNW 19 26 10 14 1014.6 1014.3 0.0
06/01:30am 12.3 8.4 8.6 78 1.9 WNW 19 28 10 15 1015.0 1014.7 0.0
06/01:00am 12.3 8.9 9.0 80 1.7 WNW 17 24 9 13 1014.9 1014.6 0.0
06/12:30am 12.1 8.1 8.4 78 1.8 WNW 19 28 10 15 1015.2 1014.9 0.0
06/12:00am 12.6 8.5 8.7 77 2.0 WNW 20 26 11 14 1015.3 1015.0 0.0
 
Date/Time
EDT
Temp
°C
App
Temp
°C
Dew
Point
Rel
Hum
%
Delta-T
°C
Wind Press
QNH
hPa
Press
MSL
hPa
Rain
since 9 am
mm
Dir
 
Spd
km/h
Gust
km/h
Spd
kts
Gust
kts
05/11:30pm 12.5 8.9 8.2 75 2.1 WNW 17 26 9 14 1015.8 1015.5 0.0
05/11:00pm 12.0 8.5 7.1 72 2.4 WNW 15 22 8 12 1016.1 1015.9 0.0
05/10:30pm 13.1 9.2 7.3 68 2.8 W 17 24 9 13 1016.4 1016.2 0.0
05/10:00pm 12.9 9.0 6.9 67 2.9 W 17 22 9 12 1016.6 1016.4 0.0
05/09:30pm 13.2 9.2 6.8 65 3.1 W 17 24 9 13 1016.7 1016.5 0.0
05/09:00pm 13.3 8.6 6.2 62 3.4 W 20 33 11 18 1016.7 1016.5 0.0
05/08:30pm 13.6 9.2 6.5 62 3.4 W 19 30 10 16 1016.6 1016.4 0.0
05/08:00pm 14.0 8.9 7.5 65 3.2 WSW 24 37 13 20 1016.8 1016.6 0.0
05/07:30pm 14.4 9.8 6.3 58 3.9 WSW 20 30 11 16 1016.9 1016.7 0.0
05/07:00pm 14.7 8.7 5.2 53 4.5 WSW 26 39 14 21 1017.2 1017.0 0.0
05/06:30pm 15.0 9.5 7.5 61 3.7 WSW 26 43 14 23 1017.2 1017.0 0.0
05/06:00pm 15.9 9.6 5.8 51 4.9 SW 28 43 15 23 1017.3 1017.1 0.0
05/05:30pm 16.5 9.2 5.5 48 5.3 SW 33 44 18 24 1017.4 1017.2 0.0
05/05:00pm 16.8 9.7 5.7 48 5.4 SW 32 44 17 24 1017.6 1017.4 0.0
05/04:30pm 17.0 10.0 6.8 51 5.1 SW 33 48 18 26 1017.6 1017.4 0.0
05/04:22pm 16.8 10.3 6.3 50 5.2 SW 30 48 16 26 1017.7 1017.5 0.0
05/04:00pm 16.5 10.5 6.9 53 4.8 SW 28 44 15 24 1017.8 1017.6 0.0
05/03:30pm 17.0 12.0 6.5 50 5.2 WSW 22 37 12 20 1018.1 1017.9 0.0
05/03:00pm 17.4 10.4 4.0 41 6.3 SW 30 50 16 27 1018.5 1018.3 0.0
05/02:57pm 17.8 11.0 5.1 43 6.1 SW 30 50 16 27 1018.3 1018.1 0.0
05/02:30pm 16.8 10.4 5.1 46 5.6 SW 28 41 15 22 1018.6 1018.4 0.0
05/02:00pm 16.4 10.5 7.3 55 4.5 SW 28 43 15 23 1018.7 1018.5 0.0
05/01:30pm 17.9 12.5 6.4 47 5.7 SW 24 39 13 21 1018.6 1018.4 0.0
05/01:00pm 15.6 9.1 4.6 48 5.2 SW 28 41 15 22 1019.1 1018.9 0.0
05/12:30pm 15.3 8.9 5.0 50 4.9 SW 28 39 15 21 1019.4 1019.2 0.0
05/12:00pm 16.9 10.4 6.4 50 5.2 SW 30 46 16 25 1019.6 1019.4 0.0
05/11:30am 16.3 9.8 6.4 52 4.9 SSW 30 39 16 21 1019.6 1019.4 0.0
05/11:00am 15.9 9.2 7.4 57 4.2 SSW 32 43 17 23 1019.3 1019.1 0.0
05/10:30am 15.2 8.1 6.5 56 4.3 SW 33 44 18 24 1018.9 1018.7 0.0
05/10:00am 14.7 7.1 6.0 56 4.2 SSW 35 48 19 26 1018.5 1018.3 0.0
05/09:30am 13.6 7.3 7.4 66 3.1 SSW 30 39 16 21 1018.6 1018.4 0.0
05/09:00am 13.0 5.9 6.6 65 3.1 SW 33 54 18 29 1018.1 1017.9 0.4
05/08:57am 13.0 6.2 6.8 66 3.0 SSW 32 54 17 29 1018.0 1017.8 0.4
05/08:30am 12.2 5.7 6.7 69 2.6 SSW 30 39 16 21 1017.6 1017.4 0.4
05/08:00am 11.4 5.8 5.5 67 2.7 SW 24 30 13 16 1017.4 1017.2 0.4
05/07:30am 10.6 5.8 5.8 72 2.2 SW 20 28 11 15 1017.0 1016.8 0.4
05/07:00am 10.5 5.6 4.9 68 2.5 SW 20 30 11 16 1016.4 1016.2 0.4
05/06:30am 10.7 4.7 5.3 69 2.5 SW 26 43 14 23 1015.9 1015.6 0.4
05/06:00am 11.0 4.8 6.2 72 2.3 SW 28 41 15 22 1015.7 1015.4 0.4
05/05:30am 10.8 4.8 5.1 68 2.6 SW 26 35 14 19 1015.2 1014.9 0.4
05/05:00am 10.2 6.1 6.4 77 1.8 SW 17 26 9 14 1015.5 1015.2 0.4
05/04:30am 10.5 5.7 7.2 80 1.6 SW 22 32 12 17 1015.1 1014.8 0.4
05/04:00am 10.0 3.0 6.7 80 1.6 SW 33 57 18 31 1014.5 1014.2 0.4
05/03:50am 11.2 4.6 6.1 71 2.4 SW 30 57 16 31 1014.5 1014.2 0.4
05/03:30am 11.6 3.5 5.3 65 2.9 SW 37 50 20 27 1014.1 1013.8 0.4
05/03:20am 12.0 4.9 6.5 69 2.6 SW 33 52 18 28 1014.0 1013.7 0.4
05/03:00am 12.3 4.9 6.8 69 2.6 SW 35 50 19 27 1013.7 1013.5 0.4
05/02:30am 12.3 6.5 9.3 82 1.5 SW 30 54 16 29 1013.5 1013.3 0.4
05/02:00am 12.7 5.7 10.1 84 1.3 SW 37 61 20 33 1013.1 1012.9 0.4
05/01:39am 13.3 8.4 11.4 88 1.0 WSW 28 46 15 25 1012.6 1012.4 0.2
05/01:30am 13.3 9.7 12.0 92 0.7 WSW 22 32 12 17 1012.3 1012.1 0.2
05/01:00am 13.4 9.9 12.1 92 0.7 WSW 22 37 12 20 1011.8 1011.6 0.2
05/12:30am 13.8 8.4 12.9 94 0.5 W 33 44 18 24 1011.5 1011.3 0.2
05/12:00am 13.9 11.0 13.0 94 0.5 W 20 32 11 17 1011.1 1010.9 0.0
 
Date/Time
EDT
Temp
°C
App
Temp
°C
Dew
Point
Rel
Hum
%
Delta-T
°C
Wind Press
QNH
hPa
Press
MSL
hPa
Rain
since 9 am
mm
Dir
 
Spd
km/h
Gust
km/h
Spd
kts
Gust
kts
04/11:30pm 15.1 10.3 12.8 86 1.3 WNW 30 44 16 24 1011.1 1010.9 0.0
04/11:00pm 14.7 10.9 12.4 86 1.3 WNW 24 33 13 18 1011.1 1010.9 0.0
04/10:30pm 14.8 10.1 12.1 84 1.5 WNW 28 37 15 20 1011.0 1010.8 0.0
04/10:00pm 15.1 10.1 12.1 82 1.6 WNW 30 43 16 23 1011.2 1011.0 0.0
04/09:30pm 14.7 9.8 12.7 88 1.1 WNW 30 48 16 26 1011.5 1011.3 0.0
04/09:17pm 14.9 9.3 12.2 84 1.5 W 33 56 18 30 1011.6 1011.4 0.0
04/09:13pm 15.9 11.2 11.9 77 2.2 W 28 56 15 30 1011.6 1011.4 0.0
04/09:00pm 17.4 14.7 11.7 69 3.1 W 17 24 9 13 1011.1 1010.9 0.0
04/08:30pm 17.6 14.2 11.2 66 3.5 W 20 33 11 18 1011.1 1010.9 0.0
04/08:00pm 18.0 14.7 11.6 66 3.5 W 20 37 11 20 1010.9 1010.7 0.0
04/07:30pm 19.3 14.8 10.0 55 5.0 W 24 37 13 20 1010.9 1010.7 0.0
04/07:00pm 20.4 14.6 9.6 50 5.8 W 30 44 16 24 1011.0 1010.8 0.0
04/06:30pm 20.8 15.7 10.6 52 5.6 W 28 43 15 23 1011.0 1010.8 0.0
04/06:00pm 21.0 16.0 11.1 53 5.5 W 28 41 15 22 1011.0 1010.8 0.0
04/05:30pm 20.9 16.7 11.0 53 5.5 W 24 37 13 20 1011.2 1011.0 0.0
04/05:00pm 21.5 17.7 11.2 52 5.7 W 22 33 12 18 1011.3 1011.1 0.0
04/04:30pm 22.0 17.6 11.7 52 5.8 WNW 26 37 14 20 1011.7 1011.5 0.0
04/04:00pm 20.9 15.9 11.0 53 5.5 WNW 28 44 15 24 1012.1 1011.9 0.0
04/03:30pm 20.2 15.6 11.1 56 5.0 WNW 26 35 14 19 1012.6 1012.4 0.0
04/03:00pm 20.3 16.5 11.0 55 5.1 W 22 35 12 19 1013.0 1012.8 0.0
04/02:30pm 20.9 17.1 11.3 54 5.3 W 22 33 12 18 1013.2 1013.0 0.0
04/02:00pm 20.4 15.7 10.8 54 5.3 NW 26 39 14 21 1013.3 1013.1 0.0
04/01:30pm 19.6 15.5 11.4 59 4.5 WNW 24 33 13 18 1013.7 1013.5 0.0
04/01:00pm 18.6 14.9 11.4 63 4.0 WNW 22 33 12 18 1014.3 1014.0 0.0

Other Formats:

Comma delimited format used in spreadsheet applications
http://www.bom.gov.au/fwo/IDV60801/IDV60801.94840.axf

JavaScript Object Notation format (JSON) in row-major order
http://www.bom.gov.au/fwo/IDV60801/IDV60801.94840.json